Time;durP1;ratioP1;P1;durP2;ratioP2;P2;SDS_P1;SDS_P2;PMS_P1;PMS_P2;Temp;Humidity;BMP_temperature;BMP_pressure;BME280_temperature;BME280_humidity;BME280_pressure;Samples;Min_cycle;Max_cycle;Signal;HPM_P1;HPM_P2
2022/07/30 00:00:49;;;;;;;11.20;4.82;;;16.90;95.90;;;;;;4131930;28;20133;-81
2022/07/30 00:02:50;;;;;;;7.88;4.25;;;17.00;96.00;;;;;;4131522;28;20513;-82
2022/07/30 00:04:51;;;;;;;8.07;4.80;;;16.90;96.10;;;;;;4114571;28;20101;-82
2022/07/30 00:06:51;;;;;;;9.20;4.45;;;16.90;96.10;;;;;;4146977;28;20049;-81
2022/07/30 00:08:52;;;;;;;7.03;4.97;;;16.90;96.20;;;;;;4115243;28;20637;-82
2022/07/30 00:10:53;;;;;;;9.85;4.97;;;16.90;96.30;;;;;;4132561;28;20092;-81
2022/07/30 00:12:53;;;;;;;12.30;5.45;;;16.80;96.30;;;;;;4114578;28;20054;-81
2022/07/30 00:14:54;;;;;;;11.88;4.85;;;16.80;96.40;;;;;;4130993;28;20050;-82
2022/07/30 00:16:55;;;;;;;7.28;4.47;;;16.80;96.50;;;;;;4131944;28;20101;-82
2022/07/30 00:18:55;;;;;;;11.90;5.25;;;16.70;96.70;;;;;;4131770;28;20126;-82
2022/07/30 00:20:56;;;;;;;9.63;5.55;;;16.70;96.80;;;;;;4098730;29;20051;-82
2022/07/30 00:22:57;;;;;;;7.88;4.75;;;16.60;96.90;;;;;;4131708;28;20068;-82
2022/07/30 00:24:58;;;;;;;11.43;5.07;;;16.60;97.00;;;;;;4113816;28;20437;-81
2022/07/30 00:26:58;;;;;;;7.80;5.10;;;16.60;97.10;;;;;;4132147;28;20456;-82
2022/07/30 00:28:59;;;;;;;8.32;4.90;;;16.60;97.20;;;;;;4132049;28;20050;-82
2022/07/30 00:31:01;;;;;;;8.07;5.22;;;16.60;97.20;;;;;;4114910;28;20050;-82
2022/07/30 00:33:01;;;;;;;10.13;5.32;;;16.60;97.50;;;;;;4147381;28;20056;-82
2022/07/30 00:35:02;;;;;;;9.40;5.15;;;16.60;97.70;;;;;;4114133;28;20137;-82
2022/07/30 00:37:03;;;;;;;14.55;5.55;;;16.60;97.90;;;;;;4132116;28;20086;-82
2022/07/30 00:39:04;;;;;;;9.70;5.80;;;16.60;98.10;;;;;;4106699;28;20543;-82
2022/07/30 00:41:05;;;;;;;7.38;4.97;;;16.50;98.20;;;;;;4100251;28;20051;-82
2022/07/30 00:43:06;;;;;;;11.50;4.75;;;16.50;98.20;;;;;;4099126;29;20046;-82
2022/07/30 00:45:08;;;;;;;10.35;5.40;;;16.50;98.20;;;;;;4099531;29;20047;-82
2022/07/30 00:47:09;;;;;;;7.90;5.65;;;16.50;98.20;;;;;;4099759;29;20532;-82
2022/07/30 00:49:09;;;;;;;9.95;6.32;;;16.50;98.30;;;;;;4100020;28;20077;-82
2022/07/30 00:51:11;;;;;;;12.23;5.80;;;16.40;98.40;;;;;;4083451;29;20139;-82
2022/07/30 00:53:12;;;;;;;8.52;5.60;;;16.40;98.50;;;;;;4104741;29;20044;-82
2022/07/30 00:55:14;;;;;;;10.75;5.95;;;16.40;98.60;;;;;;4115870;28;20078;-82
2022/07/30 00:57:15;;;;;;;10.30;5.55;;;16.40;98.70;;;;;;4115166;29;20078;-83
2022/07/30 00:59:15;;;;;;;8.00;5.03;;;16.50;98.80;;;;;;4115258;28;20065;-81
2022/07/30 01:01:16;;;;;;;12.60;5.50;;;16.40;98.60;;;;;;4114269;29;20055;-83
2022/07/30 01:03:17;;;;;;;12.02;6.25;;;16.40;98.70;;;;;;4114464;29;20051;-83
2022/07/30 01:05:18;;;;;;;7.70;5.47;;;16.30;98.70;;;;;;4115181;28;20043;-82
2022/07/30 01:07:19;;;;;;;8.93;5.65;;;16.30;98.90;;;;;;4115914;29;20059;-82
2022/07/30 01:09:20;;;;;;;8.50;5.53;;;16.30;98.90;;;;;;4112711;29;20523;-82
2022/07/30 01:11:27;;;;;;;9.32;5.90;;;16.20;99.00;;;;;;4102406;29;20050;-83
2022/07/30 01:13:28;;;;;;;13.35;5.30;;;16.20;99.10;;;;;;4101637;29;20592;-82
2022/07/30 01:15:29;;;;;;;11.27;5.35;;;16.20;99.10;;;;;;4101486;29;20051;-81
2022/07/30 01:17:30;;;;;;;6.90;5.15;;;16.20;99.10;;;;;;4087240;29;20114;-83
2022/07/30 01:19:47;;;;;;;12.93;5.65;;;16.20;99.20;;;;;;4105448;29;20044;-82
2022/07/30 01:21:59;;;;;;;13.15;6.25;;;16.20;99.30;;;;;;4103094;29;20535;-82
2022/07/30 01:24:27;;;;;;;8.50;5.20;;;16.10;99.20;;;;;;4102204;29;20066;-82
2022/07/30 01:26:28;;;;;;;11.00;5.47;;;16.10;99.40;;;;;;4101092;29;20634;-82
2022/07/30 01:28:34;;;;;;;9.65;5.55;;;16.00;99.30;;;;;;4102752;28;20114;-82
2022/07/30 01:30:40;;;;;;;10.05;5.28;;;16.00;99.50;;;;;;4085598;29;20056;-82
2022/07/30 01:32:42;;;;;;;10.52;5.50;;;16.00;99.70;;;;;;4085029;29;20074;-82
2022/07/30 01:34:45;;;;;;;10.25;5.60;;;16.00;99.60;;;;;;4084708;29;20058;-82
2022/07/30 01:36:46;;;;;;;10.57;4.93;;;16.00;99.50;;;;;;4101915;29;20131;-82
2022/07/30 01:38:49;;;;;;;11.95;5.80;;;16.00;99.70;;;;;;4113770;28;20066;-82
2022/07/30 01:40:52;;;;;;;10.02;6.05;;;15.90;99.50;;;;;;4134219;28;20069;-82
2022/07/30 01:42:57;;;;;;;13.00;6.68;;;15.90;99.50;;;;;;4101219;29;20118;-82
2022/07/30 01:44:58;;;;;;;10.60;5.63;;;15.90;99.70;;;;;;4132239;28;20125;-82
2022/07/30 01:47:01;;;;;;;9.00;5.43;;;15.90;99.70;;;;;;4134547;28;20038;-82
2022/07/30 01:49:02;;;;;;;9.52;5.57;;;15.90;99.90;;;;;;4134290;28;20487;-82
2022/07/30 01:51:04;;;;;;;10.10;6.55;;;15.90;99.90;;;;;;4149252;28;20108;-82
2022/07/30 01:53:07;;;;;;;10.65;6.53;;;15.90;99.90;;;;;;4149520;28;20132;-82
2022/07/30 01:55:11;;;;;;;8.90;5.68;;;15.90;99.90;;;;;;4149101;28;20050;-82
2022/07/30 01:57:14;;;;;;;9.98;6.32;;;15.90;99.90;;;;;;4134029;28;20046;-82
2022/07/30 01:59:18;;;;;;;10.27;5.43;;;15.90;99.90;;;;;;4134058;28;20049;-82
2022/07/30 02:01:19;;;;;;;8.50;5.38;;;15.90;99.90;;;;;;4118557;28;20568;-82
2022/07/30 02:03:21;;;;;;;13.60;6.20;;;15.90;99.90;;;;;;4125820;28;20405;-82
2022/07/30 02:05:22;;;;;;;14.77;6.15;;;15.90;99.90;;;;;;4149098;28;20533;-82
2022/07/30 02:07:45;;;;;;;11.25;6.25;;;15.90;99.90;;;;;;4134068;28;20050;-82
2022/07/30 02:09:54;;;;;;;10.35;5.97;;;15.80;99.90;;;;;;4133860;28;20105;-82
2022/07/30 02:14:27;;;;;;;15.10;7.00;;;15.80;99.90;;;;;;4134186;28;20133;-82
2022/07/30 02:16:35;;;;;;;12.80;6.40;;;15.80;99.90;;;;;;4131821;28;20089;-82
2022/07/30 02:18:55;;;;;;;12.75;7.18;;;15.80;99.90;;;;;;4132535;28;20415;-81
2022/07/30 02:21:05;;;;;;;12.20;7.10;;;15.80;99.90;;;;;;4118015;28;20054;-82
2022/07/30 02:23:09;;;;;;;9.70;6.50;;;15.80;99.90;;;;;;4118235;28;20108;-82
2022/07/30 02:25:15;;;;;;;11.98;6.43;;;15.80;99.90;;;;;;4133109;28;20054;-82
2022/07/30 02:27:27;;;;;;;12.45;5.97;;;15.80;99.90;;;;;;4145147;28;20100;-82
2022/07/30 02:29:32;;;;;;;10.32;6.53;;;15.70;99.90;;;;;;4133584;28;20046;-81
2022/07/30 02:31:34;;;;;;;13.50;7.55;;;15.60;99.90;;;;;;4148686;28;20218;-82
2022/07/30 02:33:40;;;;;;;11.73;6.70;;;15.60;99.90;;;;;;4148881;28;20128;-82
2022/07/30 02:35:41;;;;;;;9.80;6.20;;;15.60;99.90;;;;;;4148677;28;20050;-82
2022/07/30 02:37:43;;;;;;;12.65;6.78;;;15.60;99.90;;;;;;4148445;28;20530;-82
2022/07/30 02:39:44;;;;;;;12.10;6.82;;;15.60;99.90;;;;;;4100462;29;20070;-81
2022/07/30 02:41:46;;;;;;;9.80;6.47;;;15.50;99.90;;;;;;4132504;28;20434;-81
2022/07/30 02:43:48;;;;;;;8.82;6.28;;;15.40;99.90;;;;;;4148353;28;20053;-82
2022/07/30 02:45:49;;;;;;;10.65;6.97;;;15.40;99.90;;;;;;4133655;28;20046;-82
2022/07/30 02:48:01;;;;;;;10.50;5.95;;;15.40;99.90;;;;;;4148448;28;20489;-81
2022/07/30 02:50:04;;;;;;;10.18;6.25;;;15.40;99.90;;;;;;4133154;28;20138;-82
2022/07/30 02:52:07;;;;;;;10.88;6.15;;;15.40;99.90;;;;;;4133029;28;20050;-81
2022/07/30 02:54:09;;;;;;;8.98;5.90;;;15.40;99.90;;;;;;4133356;28;20051;-82
2022/07/30 02:56:11;;;;;;;9.45;5.95;;;15.30;99.90;;;;;;4133581;28;20046;-82
2022/07/30 02:58:18;;;;;;;14.07;6.40;;;15.30;99.90;;;;;;4132712;28;20052;-82
2022/07/30 03:00:20;;;;;;;11.30;5.82;;;15.30;99.90;;;;;;4133369;28;20042;-82
2022/07/30 03:02:22;;;;;;;10.00;6.43;;;15.30;99.90;;;;;;4133736;28;20491;-82
2022/07/30 03:04:25;;;;;;;11.20;5.97;;;15.20;99.90;;;;;;4116717;28;20109;-82
2022/07/30 03:06:27;;;;;;;8.45;5.95;;;15.30;99.90;;;;;;4148267;28;20516;-82
2022/07/30 03:08:29;;;;;;;14.95;6.70;;;15.30;99.90;;;;;;4133152;28;20471;-82
2022/07/30 03:10:31;;;;;;;7.78;5.55;;;15.20;99.90;;;;;;4115838;28;20073;-82
2022/07/30 03:12:33;;;;;;;11.68;7.13;;;15.30;99.90;;;;;;4133080;28;20518;-82
2022/07/30 03:14:34;;;;;;;9.90;5.60;;;15.20;99.90;;;;;;4133577;28;20121;-82
2022/07/30 03:16:37;;;;;;;12.90;6.10;;;15.20;99.90;;;;;;4133561;28;20065;-82
2022/07/30 03:18:41;;;;;;;11.75;6.50;;;15.20;99.90;;;;;;4115827;28;20059;-82
2022/07/30 03:20:47;;;;;;;8.82;6.45;;;15.20;99.90;;;;;;4132979;28;20125;-82
2022/07/30 03:22:51;;;;;;;9.05;6.20;;;15.20;99.90;;;;;;4133076;28;20058;-82
2022/07/30 03:24:54;;;;;;;10.40;5.32;;;15.10;99.90;;;;;;4147603;28;20112;-82
2022/07/30 03:26:56;;;;;;;10.02;5.55;;;15.10;99.90;;;;;;4132864;28;20171;-82
2022/07/30 03:28:59;;;;;;;7.55;4.38;;;15.10;99.90;;;;;;4114900;28;20065;-82
2022/07/30 03:31:00;;;;;;;10.40;5.22;;;15.00;99.90;;;;;;4132628;28;20161;-82
2022/07/30 03:33:02;;;;;;;9.23;5.05;;;15.00;99.90;;;;;;4132842;28;20046;-82
2022/07/30 03:35:05;;;;;;;11.77;7.13;;;15.00;99.90;;;;;;4148097;28;20046;-82
2022/07/30 03:37:06;;;;;;;8.80;5.22;;;14.90;99.90;;;;;;4147562;28;20045;-82
2022/07/30 03:39:07;;;;;;;9.13;5.88;;;15.00;99.90;;;;;;4115157;28;20573;-82
2022/07/30 03:41:10;;;;;;;8.98;5.47;;;15.00;99.90;;;;;;4132207;28;20049;-82
2022/07/30 03:43:12;;;;;;;9.50;6.53;;;14.90;99.90;;;;;;4148020;28;20061;-82
2022/07/30 03:45:13;;;;;;;10.10;6.03;;;14.90;99.90;;;;;;4098413;29;20057;-82
2022/07/30 03:47:15;;;;;;;10.98;6.40;;;14.90;99.90;;;;;;4132501;28;20490;-82
2022/07/30 03:49:16;;;;;;;13.43;6.28;;;14.90;99.90;;;;;;4115487;28;20047;-82
2022/07/30 03:51:17;;;;;;;10.32;5.97;;;14.90;99.90;;;;;;4147137;28;20049;-82
2022/07/30 03:53:18;;;;;;;12.82;7.22;;;14.90;99.90;;;;;;4131986;28;20499;-82
2022/07/30 03:55:20;;;;;;;12.25;7.40;;;15.00;99.90;;;;;;4133493;28;20042;-81
2022/07/30 03:57:21;;;;;;;13.45;6.63;;;14.90;99.90;;;;;;4131830;28;20050;-81
2022/07/30 03:59:23;;;;;;;13.77;7.03;;;15.00;99.90;;;;;;4132523;28;20082;-81
2022/07/30 04:01:25;;;;;;;13.75;7.22;;;15.00;99.90;;;;;;4131353;28;20419;-81
2022/07/30 04:03:28;;;;;;;12.20;7.20;;;14.90;99.90;;;;;;4131123;28;20062;-82
2022/07/30 04:05:29;;;;;;;11.07;7.05;;;15.00;99.90;;;;;;4130843;28;20062;-81
2022/07/30 04:07:30;;;;;;;14.77;7.55;;;15.00;99.90;;;;;;4116231;28;20508;-81
2022/07/30 04:09:30;;;;;;;15.65;7.32;;;15.00;99.90;;;;;;4116497;28;20130;-81
2022/07/30 04:11:31;;;;;;;14.00;6.55;;;15.00;99.90;;;;;;4108266;28;20443;-81
2022/07/30 04:13:32;;;;;;;12.38;6.80;;;15.00;99.90;;;;;;4132036;28;20046;-82
2022/07/30 04:15:42;;;;;;;16.52;7.25;;;15.00;99.90;;;;;;4132383;28;20098;-81
2022/07/30 04:17:50;;;;;;;13.75;7.45;;;15.00;99.90;;;;;;4132470;28;20636;-81
2022/07/30 04:19:55;;;;;;;11.25;6.75;;;15.00;99.90;;;;;;4131230;28;20043;-81
2022/07/30 04:21:57;;;;;;;11.73;6.95;;;15.00;99.90;;;;;;4131940;28;20054;-81
2022/07/30 04:24:00;;;;;;;12.07;7.65;;;15.00;99.90;;;;;;4114905;28;20410;-81
2022/07/30 04:26:01;;;;;;;13.38;7.80;;;15.00;99.90;;;;;;4132014;28;20042;-81
2022/07/30 04:28:03;;;;;;;13.98;7.50;;;15.00;99.90;;;;;;4146932;28;20519;-82
2022/07/30 04:30:06;;;;;;;14.05;7.30;;;15.10;99.90;;;;;;4114434;28;20074;-81
2022/07/30 04:32:08;;;;;;;12.95;6.90;;;15.10;99.90;;;;;;4130603;28;20527;-81
2022/07/30 04:34:14;;;;;;;11.65;6.55;;;15.10;99.90;;;;;;4146997;28;20121;-81
2022/07/30 04:36:15;;;;;;;14.07;7.72;;;15.20;99.90;;;;;;4132344;28;20043;-82
2022/07/30 04:38:16;;;;;;;11.30;6.55;;;15.10;99.90;;;;;;4146424;28;20136;-82
2022/07/30 04:40:17;;;;;;;12.77;6.45;;;15.20;99.90;;;;;;4131422;28;20129;-82
2022/07/30 04:42:17;;;;;;;12.90;6.70;;;15.10;99.90;;;;;;4131531;28;20050;-82
2022/07/30 04:44:18;;;;;;;12.35;6.18;;;15.20;99.90;;;;;;4131703;28;20506;-82
2022/07/30 04:46:19;;;;;;;12.88;6.72;;;15.10;99.90;;;;;;4114753;28;20051;-82
2022/07/30 04:48:20;;;;;;;13.95;6.43;;;15.20;99.90;;;;;;4147173;28;20116;-82
2022/07/30 04:50:23;;;;;;;8.88;6.20;;;15.10;99.90;;;;;;4131714;28;20035;-82
2022/07/30 04:52:24;;;;;;;11.48;7.00;;;15.10;99.90;;;;;;4114160;28;20046;-82
2022/07/30 04:54:27;;;;;;;17.38;7.35;;;15.20;99.90;;;;;;4131698;28;20049;-82
2022/07/30 04:56:30;;;;;;;10.50;7.10;;;15.20;99.90;;;;;;4114456;28;20054;-82
2022/07/30 04:58:34;;;;;;;12.88;6.25;;;15.20;99.90;;;;;;4146717;28;20050;-82
2022/07/30 05:00:38;;;;;;;11.73;6.20;;;15.30;99.90;;;;;;4146704;28;20093;-82
2022/07/30 05:02:40;;;;;;;10.35;6.07;;;15.30;99.90;;;;;;4114251;28;20059;-82
2022/07/30 05:04:41;;;;;;;14.15;7.10;;;15.30;99.90;;;;;;4131632;28;20082;-82
2022/07/30 05:06:43;;;;;;;11.10;6.28;;;15.30;99.90;;;;;;4114197;28;20054;-82
2022/07/30 05:08:46;;;;;;;11.35;6.43;;;15.30;99.90;;;;;;4131780;28;20050;-82
2022/07/30 05:10:47;;;;;;;13.23;6.78;;;15.40;99.90;;;;;;4131902;28;20042;-82
2022/07/30 05:12:49;;;;;;;10.82;6.63;;;15.40;99.90;;;;;;4098098;29;20110;-82
2022/07/30 05:14:50;;;;;;;10.15;6.35;;;15.40;99.90;;;;;;4146646;28;20059;-82
2022/07/30 05:16:51;;;;;;;12.77;6.30;;;15.50;99.90;;;;;;4131651;28;20042;-82
2022/07/30 05:18:52;;;;;;;14.02;6.38;;;15.50;99.90;;;;;;4113908;28;20051;-82
2022/07/30 05:20:53;;;;;;;11.80;5.45;;;15.60;99.90;;;;;;4146445;28;20168;-82
2022/07/30 05:22:53;;;;;;;8.00;5.80;;;15.60;99.90;;;;;;4131196;28;20495;-82
2022/07/30 05:24:55;;;;;;;8.63;4.40;;;15.60;99.90;;;;;;4146052;28;20054;-82
2022/07/30 05:26:56;;;;;;;9.88;5.68;;;15.60;99.90;;;;;;4130645;28;20055;-82
2022/07/30 05:28:57;;;;;;;11.40;4.88;;;15.70;99.90;;;;;;4110214;28;20054;-82
2022/07/30 05:30:58;;;;;;;10.25;4.60;;;15.70;99.90;;;;;;4131275;28;20414;-82
2022/07/30 05:32:58;;;;;;;10.68;5.65;;;15.80;99.90;;;;;;4131677;28;20483;-82
2022/07/30 05:34:59;;;;;;;7.60;5.28;;;15.80;99.90;;;;;;4146324;28;20049;-82
2022/07/30 05:37:00;;;;;;;8.77;5.25;;;15.90;99.90;;;;;;4114007;28;20360;-82
2022/07/30 05:39:01;;;;;;;9.85;5.50;;;16.00;99.90;;;;;;4131403;28;20105;-82
2022/07/30 05:41:01;;;;;;;14.13;6.00;;;16.20;99.90;;;;;;4114358;28;20479;-82
2022/07/30 05:43:02;;;;;;;13.82;6.20;;;16.10;99.90;;;;;;4131063;28;20042;-82
2022/07/30 05:45:03;;;;;;;10.70;5.53;;;16.20;99.90;;;;;;4131475;28;20042;-82
2022/07/30 05:47:04;;;;;;;10.70;6.32;;;16.30;99.90;;;;;;4130975;28;20042;-82
2022/07/30 05:49:05;;;;;;;11.98;6.68;;;16.40;99.90;;;;;;4146166;28;20046;-82
2022/07/30 05:51:05;;;;;;;13.52;6.32;;;16.50;99.90;;;;;;4131583;28;20438;-82
2022/07/30 05:53:06;;;;;;;14.00;7.35;;;16.60;99.90;;;;;;4133780;28;20058;-82
2022/07/30 05:55:08;;;;;;;13.18;7.55;;;16.60;99.90;;;;;;4133614;28;20049;-82
2022/07/30 05:57:08;;;;;;;13.57;7.30;;;16.70;99.90;;;;;;4151185;28;20056;-81
2022/07/30 05:59:09;;;;;;;12.68;7.03;;;16.80;99.90;;;;;;4134457;28;20070;-82
2022/07/30 06:01:10;;;;;;;11.07;7.13;;;16.90;99.90;;;;;;4134241;28;20084;-83
2022/07/30 06:03:11;;;;;;;17.58;7.88;;;17.00;99.90;;;;;;4148335;28;20050;-82
2022/07/30 06:05:12;;;;;;;14.05;8.10;;;17.10;99.90;;;;;;4133905;28;20046;-82
2022/07/30 06:07:13;;;;;;;22.48;9.18;;;17.20;99.90;;;;;;4135979;28;20042;-81
2022/07/30 06:09:14;;;;;;;20.52;9.55;;;17.30;99.90;;;;;;4134200;28;20549;-81
2022/07/30 06:11:15;;;;;;;13.18;7.75;;;17.30;99.90;;;;;;4133898;28;20050;-80
2022/07/30 06:13:16;;;;;;;13.15;7.72;;;17.40;99.90;;;;;;4134456;28;20050;-82
2022/07/30 06:15:17;;;;;;;15.65;8.18;;;17.50;99.90;;;;;;4133595;28;20044;-81
2022/07/30 06:17:18;;;;;;;11.45;8.30;;;17.60;99.90;;;;;;4134054;28;20046;-81
2022/07/30 06:19:19;;;;;;;12.07;8.43;;;17.60;99.90;;;;;;4148960;28;20430;-81
2022/07/30 06:21:20;;;;;;;14.98;8.25;;;17.70;99.90;;;;;;4133990;28;20046;-81
2022/07/30 06:23:21;;;;;;;14.68;8.18;;;17.80;99.90;;;;;;4133478;28;20112;-82
2022/07/30 06:25:24;;;;;;;16.42;7.95;;;17.80;99.90;;;;;;4133665;28;20117;-82
2022/07/30 06:27:27;;;;;;;12.52;8.27;;;17.90;99.90;;;;;;4135967;28;20042;-81
2022/07/30 06:29:27;;;;;;;13.23;8.40;;;17.90;99.90;;;;;;4133666;28;20042;-81
2022/07/30 06:31:28;;;;;;;14.07;8.45;;;17.90;99.90;;;;;;4133804;28;20046;-81
2022/07/30 06:33:29;;;;;;;16.02;8.52;;;18.00;99.90;;;;;;4133294;28;20050;-82
2022/07/30 06:35:29;;;;;;;16.58;10.20;;;18.00;99.90;;;;;;4132873;28;20042;-82
2022/07/30 06:37:30;;;;;;;14.70;7.38;;;18.10;99.90;;;;;;4133692;28;20563;-82
2022/07/30 06:39:31;;;;;;;17.10;9.18;;;18.10;99.90;;;;;;4148231;28;20492;-82
2022/07/30 06:41:33;;;;;;;15.55;8.48;;;18.20;99.90;;;;;;4116288;28;20117;-82
2022/07/30 06:43:33;;;;;;;15.38;8.00;;;18.20;99.90;;;;;;4116151;28;20410;-82
2022/07/30 06:45:34;;;;;;;14.27;8.40;;;18.30;99.90;;;;;;4148417;28;20090;-82
2022/07/30 06:47:35;;;;;;;13.13;8.40;;;18.40;99.90;;;;;;4133631;28;20057;-82
2022/07/30 06:49:37;;;;;;;16.05;7.22;;;18.40;99.90;;;;;;4147651;28;20049;-81
2022/07/30 06:51:38;;;;;;;14.82;7.93;;;18.50;99.90;;;;;;4133370;28;20101;-80
2022/07/30 06:53:39;;;;;;;12.48;7.53;;;18.50;99.90;;;;;;4133488;28;20057;-80
2022/07/30 06:55:40;;;;;;;13.27;7.78;;;18.60;99.90;;;;;;4148192;28;20101;-81
2022/07/30 06:57:41;;;;;;;17.38;7.50;;;18.70;99.90;;;;;;4133364;28;20081;-81
2022/07/30 06:59:41;;;;;;;16.95;8.98;;;18.70;99.90;;;;;;4134236;28;20104;-81
2022/07/30 07:01:42;;;;;;;19.05;7.68;;;18.80;99.90;;;;;;4133117;28;20053;-81
2022/07/30 07:03:43;;;;;;;17.55;8.23;;;18.90;99.90;;;;;;4131778;28;20050;-81
2022/07/30 07:05:43;;;;;;;16.95;7.60;;;18.90;99.90;;;;;;4133164;28;20058;-81
2022/07/30 07:07:44;;;;;;;14.02;7.72;;;19.10;99.90;;;;;;4148252;28;20517;-81
2022/07/30 07:09:45;;;;;;;12.40;7.60;;;19.10;99.90;;;;;;4132957;28;20042;-81
2022/07/30 07:11:45;;;;;;;12.57;7.43;;;19.20;99.90;;;;;;4132370;28;20188;-82
2022/07/30 07:13:46;;;;;;;12.10;7.53;;;19.30;99.90;;;;;;4133192;28;20503;-82
2022/07/30 07:15:48;;;;;;;15.40;7.13;;;19.50;99.90;;;;;;4132999;28;20039;-82
2022/07/30 07:17:49;;;;;;;10.80;6.95;;;19.60;99.90;;;;;;4148087;28;20054;-82
2022/07/30 07:19:49;;;;;;;11.77;6.95;;;19.70;99.90;;;;;;4133037;28;20058;-82
2022/07/30 07:21:50;;;;;;;15.05;7.15;;;19.80;99.90;;;;;;4147910;28;20498;-82
2022/07/30 07:23:51;;;;;;;11.77;6.72;;;19.90;99.90;;;;;;4115261;28;20098;-82
2022/07/30 07:25:51;;;;;;;12.10;6.80;;;20.00;99.90;;;;;;4133400;28;20402;-82
2022/07/30 07:27:52;;;;;;;14.43;6.93;;;20.10;99.90;;;;;;4135143;28;20474;-81
2022/07/30 07:29:53;;;;;;;12.05;6.55;;;20.30;99.90;;;;;;4148531;28;20046;-82
2022/07/30 07:31:54;;;;;;;13.43;6.85;;;20.40;99.90;;;;;;4134924;28;20491;-82
2022/07/30 07:33:55;;;;;;;13.77;6.65;;;20.50;99.90;;;;;;4150317;28;20056;-81
2022/07/30 07:35:59;;;;;;;10.98;6.38;;;20.60;99.90;;;;;;4133384;28;20383;-82
2022/07/30 07:37:59;;;;;;;10.35;6.60;;;20.80;99.90;;;;;;4150178;28;20119;-82
2022/07/30 07:40:00;;;;;;;13.82;6.32;;;20.90;99.90;;;;;;4135535;28;20062;-82
2022/07/30 07:42:01;;;;;;;10.80;6.05;;;20.90;99.90;;;;;;4132679;28;20049;-82
2022/07/30 07:44:04;;;;;;;9.30;5.78;;;21.00;99.90;;;;;;4133294;28;20056;-82
2022/07/30 07:46:05;;;;;;;9.73;6.35;;;21.20;99.90;;;;;;4133054;28;20100;-82
2022/07/30 07:48:06;;;;;;;10.95;6.68;;;21.30;99.90;;;;;;4115659;28;20085;-82
2022/07/30 07:50:07;;;;;;;17.10;6.10;;;21.40;99.90;;;;;;4132335;28;20121;-82
2022/07/30 07:52:08;;;;;;;9.02;5.70;;;21.50;99.90;;;;;;4132107;28;20074;-82
2022/07/30 07:54:09;;;;;;;9.38;5.57;;;21.70;99.90;;;;;;4115432;28;20055;-82
2022/07/30 07:56:10;;;;;;;10.95;5.57;;;21.80;99.90;;;;;;4132478;28;20541;-82
2022/07/30 07:58:12;;;;;;;9.02;5.13;;;21.90;99.90;;;;;;4132399;28;20050;-82
2022/07/30 08:00:14;;;;;;;9.10;5.03;;;22.00;99.90;;;;;;4131966;28;20067;-82
2022/07/30 08:02:14;;;;;;;12.20;4.93;;;22.10;99.90;;;;;;4131935;28;20073;-82
2022/07/30 08:04:16;;;;;;;10.98;5.00;;;22.20;99.90;;;;;;4147514;28;20103;-82
2022/07/30 08:06:17;;;;;;;15.02;5.75;;;22.40;99.90;;;;;;4132636;28;20058;-82
2022/07/30 08:08:17;;;;;;;9.57;4.68;;;22.60;99.90;;;;;;4147423;28;20137;-82
2022/07/30 08:10:18;;;;;;;8.10;4.53;;;22.70;99.60;;;;;;4114723;28;20054;-82
2022/07/30 08:12:19;;;;;;;14.13;5.53;;;22.70;99.50;;;;;;4132306;28;20074;-82
2022/07/30 08:14:19;;;;;;;8.27;4.80;;;22.90;99.40;;;;;;4132474;28;20043;-82
2022/07/30 08:16:20;;;;;;;8.40;4.45;;;23.00;98.80;;;;;;4131377;28;20129;-82
2022/07/30 08:18:21;;;;;;;9.07;4.32;;;23.10;98.50;;;;;;4132062;28;20410;-82
2022/07/30 08:20:23;;;;;;;8.55;4.25;;;23.10;98.10;;;;;;4132435;28;20057;-82
2022/07/30 08:22:24;;;;;;;9.50;4.47;;;23.20;97.80;;;;;;4115431;28;20113;-81
2022/07/30 08:24:25;;;;;;;12.75;4.20;;;23.30;97.60;;;;;;4146788;28;20046;-81
2022/07/30 08:26:26;;;;;;;6.38;3.45;;;23.40;97.50;;;;;;4147517;28;20100;-81
2022/07/30 08:28:27;;;;;;;11.80;3.05;;;23.50;96.90;;;;;;4147473;28;20046;-81
2022/07/30 08:30:28;;;;;;;10.57;4.03;;;23.50;96.60;;;;;;4114856;28;20133;-82
2022/07/30 08:32:28;;;;;;;8.68;4.03;;;23.40;96.50;;;;;;4147182;28;20046;-83
2022/07/30 08:34:29;;;;;;;7.53;3.13;;;23.40;96.40;;;;;;4131513;28;20042;-83
2022/07/30 08:36:30;;;;;;;5.70;3.17;;;23.50;96.30;;;;;;4132382;28;20046;-83
2022/07/30 08:38:30;;;;;;;7.45;3.22;;;23.50;96.10;;;;;;4132098;28;20125;-81
2022/07/30 08:40:33;;;;;;;7.07;2.60;;;23.70;95.70;;;;;;4115003;28;20121;-82
2022/07/30 08:42:35;;;;;;;6.50;2.72;;;24.10;95.60;;;;;;4098963;29;20239;-83
2022/07/30 08:44:36;;;;;;;9.63;3.15;;;24.40;95.10;;;;;;4132123;28;20046;-82
2022/07/30 08:46:41;;;;;;;5.05;3.00;;;24.50;94.40;;;;;;4131402;28;20050;-82
2022/07/30 08:48:43;;;;;;;8.25;3.22;;;24.40;93.80;;;;;;4115073;28;20419;-82
2022/07/30 08:50:45;;;;;;;6.85;3.10;;;24.40;93.80;;;;;;4114439;28;20130;-83
2022/07/30 08:52:47;;;;;;;4.68;2.58;;;24.60;93.70;;;;;;4115015;28;20058;-83
2022/07/30 08:54:48;;;;;;;6.25;2.50;;;24.80;93.40;;;;;;4131575;28;20046;-82
2022/07/30 08:56:49;;;;;;;5.65;2.50;;;24.90;93.10;;;;;;4099381;29;20607;-82
2022/07/30 08:58:50;;;;;;;7.45;2.50;;;24.80;92.70;;;;;;4132277;28;20081;-82
2022/07/30 09:00:51;;;;;;;14.55;3.50;;;24.80;92.40;;;;;;4115234;28;20446;-83
2022/07/30 09:02:52;;;;;;;8.43;2.60;;;24.80;92.20;;;;;;4134221;28;20053;-82
2022/07/30 09:04:54;;;;;;;9.27;3.47;;;24.80;91.80;;;;;;4116264;28;20043;-81
2022/07/30 09:06:56;;;;;;;5.82;2.67;;;24.70;91.60;;;;;;4132391;28;20113;-83
2022/07/30 09:08:57;;;;;;;9.98;3.03;;;24.70;91.50;;;;;;4117698;28;20061;-83
2022/07/30 09:10:58;;;;;;;6.63;2.40;;;24.60;91.20;;;;;;4116117;28;20157;-82
2022/07/30 09:12:59;;;;;;;10.13;2.50;;;24.70;91.20;;;;;;4115035;28;20051;-82
2022/07/30 09:15:15;;;;;;;7.57;2.50;;;24.60;91.20;;;;;;4133849;28;20043;-82
2022/07/30 09:17:16;;;;;;;6.70;2.60;;;24.70;90.60;;;;;;4131672;28;20051;-82
2022/07/30 09:19:22;;;;;;;6.25;2.50;;;24.90;90.50;;;;;;4132310;28;20082;-82
2022/07/30 09:21:28;;;;;;;9.82;2.78;;;25.00;89.80;;;;;;4114703;28;20130;-82
2022/07/30 09:23:28;;;;;;;7.15;2.10;;;25.20;88.80;;;;;;4132680;28;20104;-82
2022/07/30 09:25:33;;;;;;;8.25;2.40;;;25.30;88.10;;;;;;4132768;28;20039;-82
2022/07/30 09:27:44;;;;;;;5.57;2.28;;;25.70;87.50;;;;;;4118032;28;20118;-81
2022/07/30 09:29:58;;;;;;;4.65;2.30;;;26.00;86.70;;;;;;4151912;28;20053;-81
2022/07/30 09:32:00;;;;;;;5.03;2.30;;;26.20;85.70;;;;;;4152732;28;20088;-81
2022/07/30 09:34:01;;;;;;;5.40;2.30;;;26.50;85.60;;;;;;4118838;28;20500;-81
2022/07/30 09:36:07;;;;;;;8.18;2.17;;;26.70;84.20;;;;;;4136167;28;20132;-81
2022/07/30 09:38:08;;;;;;;6.72;1.98;;;26.70;82.20;;;;;;4102973;29;20055;-83
2022/07/30 09:40:16;;;;;;;6.70;2.30;;;26.90;83.20;;;;;;4137156;28;20105;-82
2022/07/30 09:42:21;;;;;;;3.65;1.85;;;27.10;82.20;;;;;;4143052;28;20033;-83
2022/07/30 09:44:24;;;;;;;5.00;1.98;;;27.20;82.30;;;;;;4154425;28;20050;-82
2022/07/30 09:46:46;;;;;;;3.08;1.70;;;27.40;81.50;;;;;;4137733;28;20039;-82
2022/07/30 09:48:47;;;;;;;9.57;2.10;;;27.60;79.30;;;;;;4154056;28;20097;-82
2022/07/30 09:50:50;;;;;;;4.22;1.45;;;27.70;79.50;;;;;;4154148;28;20070;-81
2022/07/30 09:52:53;;;;;;;5.75;1.85;;;27.90;78.60;;;;;;4154185;28;20069;-83
2022/07/30 09:54:54;;;;;;;5.65;1.77;;;28.10;77.80;;;;;;4151405;28;20057;-82
2022/07/30 09:57:09;;;;;;;9.63;2.35;;;28.20;77.50;;;;;;4120418;29;20612;-82
2022/07/30 09:59:27;;;;;;;7.30;2.08;;;28.40;75.40;;;;;;4154820;28;20045;-83
2022/07/30 10:01:48;;;;;;;3.97;1.73;;;28.50;73.40;;;;;;4135427;28;20050;-83
2022/07/30 10:03:48;;;;;;;4.45;1.60;;;28.70;76.10;;;;;;4135397;28;20502;-82
2022/07/30 10:05:54;;;;;;;8.43;1.95;;;28.80;74.50;;;;;;4146530;28;20105;-81
2022/07/30 10:08:01;;;;;;;4.38;1.80;;;28.80;72.40;;;;;;4134235;28;20039;-83
2022/07/30 10:10:03;;;;;;;6.28;1.80;;;28.60;72.30;;;;;;4134398;28;20498;-83
2022/07/30 10:12:05;;;;;;;6.55;1.90;;;28.80;73.00;;;;;;4135564;28;20105;-83
2022/07/30 10:14:06;;;;;;;7.05;1.80;;;28.90;71.90;;;;;;4133760;28;20054;-82
2022/07/30 10:16:10;;;;;;;7.28;2.00;;;29.00;71.60;;;;;;4116670;28;20471;-82
2022/07/30 10:18:11;;;;;;;4.78;1.80;;;29.20;70.90;;;;;;4100348;29;20106;-82
2022/07/30 10:20:13;;;;;;;3.60;1.50;;;29.20;70.10;;;;;;4133838;28;20054;-82
2022/07/30 10:22:15;;;;;;;5.43;1.90;;;29.40;69.70;;;;;;4133951;28;20051;-83
2022/07/30 10:24:17;;;;;;;8.95;2.20;;;29.40;69.00;;;;;;4133173;28;20050;-82
2022/07/30 10:26:20;;;;;;;7.43;1.70;;;29.40;69.10;;;;;;4116366;28;20055;-83
2022/07/30 10:28:27;;;;;;;4.47;1.58;;;29.40;68.50;;;;;;4133696;28;20042;-82
2022/07/30 10:30:29;;;;;;;7.68;1.95;;;29.30;66.20;;;;;;4133612;28;20479;-83
2022/07/30 10:32:31;;;;;;;4.97;1.60;;;29.10;66.80;;;;;;4133671;28;20050;-83
2022/07/30 10:34:32;;;;;;;2.72;1.50;;;29.00;66.60;;;;;;4133280;28;20109;-82